sensor_id;sensor_type;location;lat;lon;timestamp;temperature;humidity
43949;DHT22;29429;51.074;13.764;2022-12-29T00:00:55;8.00;99.90
43949;DHT22;29429;51.074;13.764;2022-12-29T00:03:22;8.10;99.90
43949;DHT22;29429;51.074;13.764;2022-12-29T00:05:56;8.10;99.90
43949;DHT22;29429;51.074;13.764;2022-12-29T00:08:24;8.10;99.90
43949;DHT22;29429;51.074;13.764;2022-12-29T00:11:07;8.10;99.90
43949;DHT22;29429;51.074;13.764;2022-12-29T00:13:39;8.10;99.90
43949;DHT22;29429;51.074;13.764;2022-12-29T00:16:26;8.10;99.90
43949;DHT22;29429;51.074;13.764;2022-12-29T00:18:53;8.20;99.90
43949;DHT22;29429;51.074;13.764;2022-12-29T00:21:23;8.10;99.90
43949;DHT22;29429;51.074;13.764;2022-12-29T00:24:19;8.20;99.90
43949;DHT22;29429;51.074;13.764;2022-12-29T00:29:43;8.30;99.90
43949;DHT22;29429;51.074;13.764;2022-12-29T00:32:29;8.40;99.90
43949;DHT22;29429;51.074;13.764;2022-12-29T00:35:23;8.50;99.90
43949;DHT22;29429;51.074;13.764;2022-12-29T00:37:54;8.70;99.90
43949;DHT22;29429;51.074;13.764;2022-12-29T00:40:42;8.80;99.90
43949;DHT22;29429;51.074;13.764;2022-12-29T00:43:27;8.90;99.90
43949;DHT22;29429;51.074;13.764;2022-12-29T00:46:13;9.10;99.90
43949;DHT22;29429;51.074;13.764;2022-12-29T00:48:45;9.30;99.90
43949;DHT22;29429;51.074;13.764;2022-12-29T00:51:31;9.30;99.90
43949;DHT22;29429;51.074;13.764;2022-12-29T00:53:58;9.40;99.90
43949;DHT22;29429;51.074;13.764;2022-12-29T00:56:25;9.60;99.90
43949;DHT22;29429;51.074;13.764;2022-12-29T00:58:52;9.40;99.90
43949;DHT22;29429;51.074;13.764;2022-12-29T01:01:18;9.50;99.90
43949;DHT22;29429;51.074;13.764;2022-12-29T01:03:46;9.60;99.90
43949;DHT22;29429;51.074;13.764;2022-12-29T01:06:12;9.60;99.90
43949;DHT22;29429;51.074;13.764;2022-12-29T01:08:40;9.70;99.90
43949;DHT22;29429;51.074;13.764;2022-12-29T01:11:10;9.60;99.90
43949;DHT22;29429;51.074;13.764;2022-12-29T01:13:39;9.70;99.90
43949;DHT22;29429;51.074;13.764;2022-12-29T01:16:07;9.60;99.90
43949;DHT22;29429;51.074;13.764;2022-12-29T01:18:34;9.70;99.90
43949;DHT22;29429;51.074;13.764;2022-12-29T01:21:03;9.60;99.90
43949;DHT22;29429;51.074;13.764;2022-12-29T01:23:33;9.60;99.90
43949;DHT22;29429;51.074;13.764;2022-12-29T01:26:11;9.60;99.90
43949;DHT22;29429;51.074;13.764;2022-12-29T01:28:40;9.60;99.90
43949;DHT22;29429;51.074;13.764;2022-12-29T01:31:09;9.60;99.90
43949;DHT22;29429;51.074;13.764;2022-12-29T01:33:37;9.60;99.90
43949;DHT22;29429;51.074;13.764;2022-12-29T01:36:12;9.60;99.90
43949;DHT22;29429;51.074;13.764;2022-12-29T01:38:41;9.60;99.90
43949;DHT22;29429;51.074;13.764;2022-12-29T01:41:10;9.60;99.90
43949;DHT22;29429;51.074;13.764;2022-12-29T01:46:29;9.60;99.90
43949;DHT22;29429;51.074;13.764;2022-12-29T01:49:24;9.60;99.90
43949;DHT22;29429;51.074;13.764;2022-12-29T01:51:58;9.60;99.90
43949;DHT22;29429;51.074;13.764;2022-12-29T01:54:36;9.60;99.90
43949;DHT22;29429;51.074;13.764;2022-12-29T01:57:12;9.60;99.90
43949;DHT22;29429;51.074;13.764;2022-12-29T01:59:50;9.50;99.90
43949;DHT22;29429;51.074;13.764;2022-12-29T02:02:21;9.50;99.90
43949;DHT22;29429;51.074;13.764;2022-12-29T02:04:48;9.30;99.90
43949;DHT22;29429;51.074;13.764;2022-12-29T02:07:19;9.10;99.90
43949;DHT22;29429;51.074;13.764;2022-12-29T02:09:49;9.10;99.90
43949;DHT22;29429;51.074;13.764;2022-12-29T02:12:20;9.10;99.90
43949;DHT22;29429;51.074;13.764;2022-12-29T02:14:53;9.00;99.90
43949;DHT22;29429;51.074;13.764;2022-12-29T02:26:42;8.80;99.90
43949;DHT22;29429;51.074;13.764;2022-12-29T02:41:30;8.70;99.90
43949;DHT22;29429;51.074;13.764;2022-12-29T02:46:53;8.80;99.90
43949;DHT22;29429;51.074;13.764;2022-12-29T02:49:38;9.00;99.90
43949;DHT22;29429;51.074;13.764;2022-12-29T02:52:18;8.90;99.90
43949;DHT22;29429;51.074;13.764;2022-12-29T02:54:49;9.20;99.90
43949;DHT22;29429;51.074;13.764;2022-12-29T02:59:54;9.40;99.90
43949;DHT22;29429;51.074;13.764;2022-12-29T03:05:45;9.50;99.90
43949;DHT22;29429;51.074;13.764;2022-12-29T03:11:11;9.50;99.90
43949;DHT22;29429;51.074;13.764;2022-12-29T03:14:17;9.50;99.90
43949;DHT22;29429;51.074;13.764;2022-12-29T03:17:35;9.50;99.90
43949;DHT22;29429;51.074;13.764;2022-12-29T03:20:07;9.50;99.90
43949;DHT22;29429;51.074;13.764;2022-12-29T03:22:42;9.50;99.90
43949;DHT22;29429;51.074;13.764;2022-12-29T03:25:30;9.50;99.90
43949;DHT22;29429;51.074;13.764;2022-12-29T03:28:07;9.60;99.90
43949;DHT22;29429;51.074;13.764;2022-12-29T03:30:41;9.60;99.90
43949;DHT22;29429;51.074;13.764;2022-12-29T03:33:15;9.60;99.90
43949;DHT22;29429;51.074;13.764;2022-12-29T03:35:47;9.60;99.90
43949;DHT22;29429;51.074;13.764;2022-12-29T03:38:24;9.70;99.90
43949;DHT22;29429;51.074;13.764;2022-12-29T03:40:58;9.80;99.90
43949;DHT22;29429;51.074;13.764;2022-12-29T03:43:29;10.00;99.90
43949;DHT22;29429;51.074;13.764;2022-12-29T03:45:56;10.20;99.90
43949;DHT22;29429;51.074;13.764;2022-12-29T03:48:23;10.30;99.90
43949;DHT22;29429;51.074;13.764;2022-12-29T03:50:53;10.40;99.90
43949;DHT22;29429;51.074;13.764;2022-12-29T03:53:21;10.50;99.90
43949;DHT22;29429;51.074;13.764;2022-12-29T03:55:49;10.40;99.90
43949;DHT22;29429;51.074;13.764;2022-12-29T03:58:16;10.50;99.90
43949;DHT22;29429;51.074;13.764;2022-12-29T04:00:54;10.50;99.90
43949;DHT22;29429;51.074;13.764;2022-12-29T04:03:22;10.50;99.90
43949;DHT22;29429;51.074;13.764;2022-12-29T04:05:49;10.60;99.90
43949;DHT22;29429;51.074;13.764;2022-12-29T04:08:17;10.50;99.90
43949;DHT22;29429;51.074;13.764;2022-12-29T04:10:44;10.50;99.90
43949;DHT22;29429;51.074;13.764;2022-12-29T04:13:13;10.60;99.90
43949;DHT22;29429;51.074;13.764;2022-12-29T04:15:40;10.40;99.90
43949;DHT22;29429;51.074;13.764;2022-12-29T04:18:09;10.40;99.90
43949;DHT22;29429;51.074;13.764;2022-12-29T04:20:37;10.30;99.90
43949;DHT22;29429;51.074;13.764;2022-12-29T04:23:23;10.20;99.90
43949;DHT22;29429;51.074;13.764;2022-12-29T04:25:51;10.10;99.90
43949;DHT22;29429;51.074;13.764;2022-12-29T04:28:18;10.10;99.90
43949;DHT22;29429;51.074;13.764;2022-12-29T04:30:48;10.00;99.90
43949;DHT22;29429;51.074;13.764;2022-12-29T04:33:21;10.00;99.90
43949;DHT22;29429;51.074;13.764;2022-12-29T04:35:49;9.90;99.90
43949;DHT22;29429;51.074;13.764;2022-12-29T04:38:16;10.00;99.90
43949;DHT22;29429;51.074;13.764;2022-12-29T04:40:44;10.00;99.90
43949;DHT22;29429;51.074;13.764;2022-12-29T04:43:12;9.90;99.90
43949;DHT22;29429;51.074;13.764;2022-12-29T04:46:00;9.90;99.90
43949;DHT22;29429;51.074;13.764;2022-12-29T04:48:34;9.80;99.90
43949;DHT22;29429;51.074;13.764;2022-12-29T04:51:24;10.00;99.90
43949;DHT22;29429;51.074;13.764;2022-12-29T04:53:51;9.90;99.90
43949;DHT22;29429;51.074;13.764;2022-12-29T04:56:18;9.90;99.90
43949;DHT22;29429;51.074;13.764;2022-12-29T04:58:46;10.00;99.90
43949;DHT22;29429;51.074;13.764;2022-12-29T05:01:13;10.00;99.90
43949;DHT22;29429;51.074;13.764;2022-12-29T05:03:40;10.00;99.90
43949;DHT22;29429;51.074;13.764;2022-12-29T05:06:08;10.00;99.90
43949;DHT22;29429;51.074;13.764;2022-12-29T05:08:35;9.90;99.90
43949;DHT22;29429;51.074;13.764;2022-12-29T05:11:02;10.00;99.90
43949;DHT22;29429;51.074;13.764;2022-12-29T05:13:29;10.00;99.90
43949;DHT22;29429;51.074;13.764;2022-12-29T05:15:56;10.00;99.90
43949;DHT22;29429;51.074;13.764;2022-12-29T05:18:24;9.90;99.90
43949;DHT22;29429;51.074;13.764;2022-12-29T05:20:52;10.00;99.90
43949;DHT22;29429;51.074;13.764;2022-12-29T05:23:20;10.00;99.90
43949;DHT22;29429;51.074;13.764;2022-12-29T05:26:05;10.00;99.90
43949;DHT22;29429;51.074;13.764;2022-12-29T05:28:44;9.90;99.90
43949;DHT22;29429;51.074;13.764;2022-12-29T05:31:16;10.00;99.90
43949;DHT22;29429;51.074;13.764;2022-12-29T05:33:44;10.00;99.90
43949;DHT22;29429;51.074;13.764;2022-12-29T05:36:11;10.00;99.90
43949;DHT22;29429;51.074;13.764;2022-12-29T05:38:44;10.10;99.90
43949;DHT22;29429;51.074;13.764;2022-12-29T05:41:12;10.10;99.90
43949;DHT22;29429;51.074;13.764;2022-12-29T05:43:58;10.10;99.90
43949;DHT22;29429;51.074;13.764;2022-12-29T05:46:51;10.30;99.90
43949;DHT22;29429;51.074;13.764;2022-12-29T05:49:38;10.30;99.90
43949;DHT22;29429;51.074;13.764;2022-12-29T05:52:18;10.30;99.90
43949;DHT22;29429;51.074;13.764;2022-12-29T05:54:46;10.40;99.90
43949;DHT22;29429;51.074;13.764;2022-12-29T05:57:16;10.30;99.90
43949;DHT22;29429;51.074;13.764;2022-12-29T05:59:49;10.30;99.90
43949;DHT22;29429;51.074;13.764;2022-12-29T06:02:16;10.40;99.90
43949;DHT22;29429;51.074;13.764;2022-12-29T06:04:43;10.30;99.90
43949;DHT22;29429;51.074;13.764;2022-12-29T06:07:10;10.30;99.90
43949;DHT22;29429;51.074;13.764;2022-12-29T06:09:42;10.40;99.90
43949;DHT22;29429;51.074;13.764;2022-12-29T06:12:09;10.40;99.90
43949;DHT22;29429;51.074;13.764;2022-12-29T06:14:38;10.50;99.90
43949;DHT22;29429;51.074;13.764;2022-12-29T06:17:06;10.50;99.90
43949;DHT22;29429;51.074;13.764;2022-12-29T06:19:33;10.50;99.90
43949;DHT22;29429;51.074;13.764;2022-12-29T06:22:01;10.60;99.90
43949;DHT22;29429;51.074;13.764;2022-12-29T06:24:31;10.60;99.90
43949;DHT22;29429;51.074;13.764;2022-12-29T06:26:58;10.60;99.90
43949;DHT22;29429;51.074;13.764;2022-12-29T06:29:26;10.70;99.90
43949;DHT22;29429;51.074;13.764;2022-12-29T06:31:55;10.70;99.90
43949;DHT22;29429;51.074;13.764;2022-12-29T06:34:25;10.70;99.90
43949;DHT22;29429;51.074;13.764;2022-12-29T06:36:52;10.70;99.90
43949;DHT22;29429;51.074;13.764;2022-12-29T06:39:19;10.80;99.90
43949;DHT22;29429;51.074;13.764;2022-12-29T06:41:59;10.80;99.90
43949;DHT22;29429;51.074;13.764;2022-12-29T06:44:44;10.70;99.90
43949;DHT22;29429;51.074;13.764;2022-12-29T06:47:11;10.70;99.90
43949;DHT22;29429;51.074;13.764;2022-12-29T06:49:38;10.60;99.90
43949;DHT22;29429;51.074;13.764;2022-12-29T06:52:05;10.60;99.90
43949;DHT22;29429;51.074;13.764;2022-12-29T06:54:38;10.50;99.90
43949;DHT22;29429;51.074;13.764;2022-12-29T06:57:05;10.40;99.90
43949;DHT22;29429;51.074;13.764;2022-12-29T06:59:32;10.40;99.90
43949;DHT22;29429;51.074;13.764;2022-12-29T07:01:59;10.30;99.90
43949;DHT22;29429;51.074;13.764;2022-12-29T07:04:29;10.20;99.90
43949;DHT22;29429;51.074;13.764;2022-12-29T07:06:55;10.10;99.90
43949;DHT22;29429;51.074;13.764;2022-12-29T07:09:22;10.00;99.90
43949;DHT22;29429;51.074;13.764;2022-12-29T07:11:49;9.90;99.90
43949;DHT22;29429;51.074;13.764;2022-12-29T07:14:16;9.90;99.90
43949;DHT22;29429;51.074;13.764;2022-12-29T07:16:43;9.80;99.90
43949;DHT22;29429;51.074;13.764;2022-12-29T07:19:10;9.80;99.90
43949;DHT22;29429;51.074;13.764;2022-12-29T07:21:37;9.70;99.90
43949;DHT22;29429;51.074;13.764;2022-12-29T07:24:05;9.70;99.90
43949;DHT22;29429;51.074;13.764;2022-12-29T07:26:32;9.60;99.90
43949;DHT22;29429;51.074;13.764;2022-12-29T07:29:05;9.70;99.90
43949;DHT22;29429;51.074;13.764;2022-12-29T07:31:32;9.70;99.90
43949;DHT22;29429;51.074;13.764;2022-12-29T07:33:59;9.80;99.90
43949;DHT22;29429;51.074;13.764;2022-12-29T07:37:29;10.00;99.90
43949;DHT22;29429;51.074;13.764;2022-12-29T07:39:56;10.30;99.90
43949;DHT22;29429;51.074;13.764;2022-12-29T07:42:23;10.60;99.90
43949;DHT22;29429;51.074;13.764;2022-12-29T07:44:51;10.80;99.90
43949;DHT22;29429;51.074;13.764;2022-12-29T07:47:26;10.90;99.90
43949;DHT22;29429;51.074;13.764;2022-12-29T07:49:53;10.90;99.90
43949;DHT22;29429;51.074;13.764;2022-12-29T07:52:20;10.90;99.90
43949;DHT22;29429;51.074;13.764;2022-12-29T07:54:47;10.90;99.90
43949;DHT22;29429;51.074;13.764;2022-12-29T07:57:14;10.90;99.90
43949;DHT22;29429;51.074;13.764;2022-12-29T07:59:41;11.00;99.90
43949;DHT22;29429;51.074;13.764;2022-12-29T08:02:10;11.00;99.90
43949;DHT22;29429;51.074;13.764;2022-12-29T08:09:03;11.00;99.90
43949;DHT22;29429;51.074;13.764;2022-12-29T08:11:44;11.00;99.90
43949;DHT22;29429;51.074;13.764;2022-12-29T08:14:11;11.10;99.90
43949;DHT22;29429;51.074;13.764;2022-12-29T08:16:39;11.10;99.90
43949;DHT22;29429;51.074;13.764;2022-12-29T08:19:06;11.10;99.90
43949;DHT22;29429;51.074;13.764;2022-12-29T08:21:33;10.90;99.90
43949;DHT22;29429;51.074;13.764;2022-12-29T08:24:07;10.80;99.90
43949;DHT22;29429;51.074;13.764;2022-12-29T08:26:39;10.80;99.90
43949;DHT22;29429;51.074;13.764;2022-12-29T08:29:06;10.90;99.90
43949;DHT22;29429;51.074;13.764;2022-12-29T08:31:32;10.70;99.90
43949;DHT22;29429;51.074;13.764;2022-12-29T08:34:00;10.80;99.90
43949;DHT22;29429;51.074;13.764;2022-12-29T08:36:30;10.80;99.90
43949;DHT22;29429;51.074;13.764;2022-12-29T08:38:57;10.60;99.90
43949;DHT22;29429;51.074;13.764;2022-12-29T08:41:24;10.60;99.90
43949;DHT22;29429;51.074;13.764;2022-12-29T08:43:51;10.50;99.90
43949;DHT22;29429;51.074;13.764;2022-12-29T08:46:18;10.50;99.90
43949;DHT22;29429;51.074;13.764;2022-12-29T08:48:46;10.50;99.90
43949;DHT22;29429;51.074;13.764;2022-12-29T08:51:13;10.40;99.90
43949;DHT22;29429;51.074;13.764;2022-12-29T08:53:40;10.30;99.90
43949;DHT22;29429;51.074;13.764;2022-12-29T08:56:08;10.30;99.90
43949;DHT22;29429;51.074;13.764;2022-12-29T08:58:53;10.20;99.90
43949;DHT22;29429;51.074;13.764;2022-12-29T09:01:30;10.20;99.90
43949;DHT22;29429;51.074;13.764;2022-12-29T09:03:57;10.10;99.90
43949;DHT22;29429;51.074;13.764;2022-12-29T09:06:43;10.00;99.90
43949;DHT22;29429;51.074;13.764;2022-12-29T09:09:11;10.00;99.90
43949;DHT22;29429;51.074;13.764;2022-12-29T09:11:39;10.00;99.90
43949;DHT22;29429;51.074;13.764;2022-12-29T09:14:06;10.10;99.90
43949;DHT22;29429;51.074;13.764;2022-12-29T09:16:33;10.20;99.90
43949;DHT22;29429;51.074;13.764;2022-12-29T09:19:01;10.40;99.90
43949;DHT22;29429;51.074;13.764;2022-12-29T09:21:29;10.60;99.90
43949;DHT22;29429;51.074;13.764;2022-12-29T09:23:56;10.70;99.90
43949;DHT22;29429;51.074;13.764;2022-12-29T09:26:23;10.90;99.90
43949;DHT22;29429;51.074;13.764;2022-12-29T09:28:50;11.00;99.90
43949;DHT22;29429;51.074;13.764;2022-12-29T09:31:17;11.10;99.90
43949;DHT22;29429;51.074;13.764;2022-12-29T09:33:44;11.20;99.90
43949;DHT22;29429;51.074;13.764;2022-12-29T09:36:11;11.10;99.90
43949;DHT22;29429;51.074;13.764;2022-12-29T09:38:38;11.20;99.90
43949;DHT22;29429;51.074;13.764;2022-12-29T09:41:22;11.20;99.90
43949;DHT22;29429;51.074;13.764;2022-12-29T09:47:21;11.30;99.90
43949;DHT22;29429;51.074;13.764;2022-12-29T09:49:59;11.50;99.90
43949;DHT22;29429;51.074;13.764;2022-12-29T09:52:40;11.60;99.90
43949;DHT22;29429;51.074;13.764;2022-12-29T09:55:19;11.60;99.90
43949;DHT22;29429;51.074;13.764;2022-12-29T09:57:56;11.80;99.90
43949;DHT22;29429;51.074;13.764;2022-12-29T10:00:48;11.80;99.90
43949;DHT22;29429;51.074;13.764;2022-12-29T10:03:24;12.00;99.90
43949;DHT22;29429;51.074;13.764;2022-12-29T10:06:20;12.10;99.90
43949;DHT22;29429;51.074;13.764;2022-12-29T10:15:03;12.40;99.90
43949;DHT22;29429;51.074;13.764;2022-12-29T10:23:51;12.40;99.90
43949;DHT22;29429;51.074;13.764;2022-12-29T10:26:23;12.50;99.90
43949;DHT22;29429;51.074;13.764;2022-12-29T10:29:22;12.50;99.90
43949;DHT22;29429;51.074;13.764;2022-12-29T10:31:59;12.50;99.90
43949;DHT22;29429;51.074;13.764;2022-12-29T10:34:38;12.60;99.90
43949;DHT22;29429;51.074;13.764;2022-12-29T10:37:36;12.60;99.90
43949;DHT22;29429;51.074;13.764;2022-12-29T10:40:26;12.60;99.90
43949;DHT22;29429;51.074;13.764;2022-12-29T10:43:26;12.60;99.90
43949;DHT22;29429;51.074;13.764;2022-12-29T10:45:58;12.70;99.90
43949;DHT22;29429;51.074;13.764;2022-12-29T10:48:33;12.80;99.90
43949;DHT22;29429;51.074;13.764;2022-12-29T10:51:05;13.00;99.90
43949;DHT22;29429;51.074;13.764;2022-12-29T10:56:30;13.40;99.90
43949;DHT22;29429;51.074;13.764;2022-12-29T10:59:26;13.60;99.90
43949;DHT22;29429;51.074;13.764;2022-12-29T11:07:37;13.90;99.90
43949;DHT22;29429;51.074;13.764;2022-12-29T11:10:35;14.10;99.90
43949;DHT22;29429;51.074;13.764;2022-12-29T11:13:14;14.20;99.90
43949;DHT22;29429;51.074;13.764;2022-12-29T11:15:51;14.30;99.90
43949;DHT22;29429;51.074;13.764;2022-12-29T11:18:30;14.30;99.90
43949;DHT22;29429;51.074;13.764;2022-12-29T11:21:01;14.30;99.90
43949;DHT22;29429;51.074;13.764;2022-12-29T11:23:38;14.30;99.90
43949;DHT22;29429;51.074;13.764;2022-12-29T11:28:38;14.20;99.90
43949;DHT22;29429;51.074;13.764;2022-12-29T11:31:07;14.00;99.90
43949;DHT22;29429;51.074;13.764;2022-12-29T11:33:37;14.00;99.90
43949;DHT22;29429;51.074;13.764;2022-12-29T11:36:14;13.90;99.90
43949;DHT22;29429;51.074;13.764;2022-12-29T11:38:49;13.90;99.90
43949;DHT22;29429;51.074;13.764;2022-12-29T11:41:27;13.90;99.90
43949;DHT22;29429;51.074;13.764;2022-12-29T11:44:02;14.00;99.90
43949;DHT22;29429;51.074;13.764;2022-12-29T11:46:34;14.00;99.90
43949;DHT22;29429;51.074;13.764;2022-12-29T11:49:05;14.10;99.90
43949;DHT22;29429;51.074;13.764;2022-12-29T11:51:46;14.10;99.90
43949;DHT22;29429;51.074;13.764;2022-12-29T11:54:29;14.20;99.90
43949;DHT22;29429;51.074;13.764;2022-12-29T11:57:09;14.30;99.90
43949;DHT22;29429;51.074;13.764;2022-12-29T11:59:55;14.40;99.90
43949;DHT22;29429;51.074;13.764;2022-12-29T12:08:07;14.30;99.90
43949;DHT22;29429;51.074;13.764;2022-12-29T12:10:48;14.20;99.90
43949;DHT22;29429;51.074;13.764;2022-12-29T12:13:31;14.10;99.90
43949;DHT22;29429;51.074;13.764;2022-12-29T12:16:20;14.00;99.90
43949;DHT22;29429;51.074;13.764;2022-12-29T12:19:16;13.90;99.90
43949;DHT22;29429;51.074;13.764;2022-12-29T12:22:13;13.80;99.90
43949;DHT22;29429;51.074;13.764;2022-12-29T12:24:58;13.70;99.90
43949;DHT22;29429;51.074;13.764;2022-12-29T12:27:37;13.60;99.90
43949;DHT22;29429;51.074;13.764;2022-12-29T12:30:18;13.60;99.90
43949;DHT22;29429;51.074;13.764;2022-12-29T12:35:46;13.70;99.90
43949;DHT22;29429;51.074;13.764;2022-12-29T12:41:03;13.80;99.90
43949;DHT22;29429;51.074;13.764;2022-12-29T12:43:49;13.80;99.90
43949;DHT22;29429;51.074;13.764;2022-12-29T12:49:36;13.90;99.90
43949;DHT22;29429;51.074;13.764;2022-12-29T13:02:03;14.00;99.90
43949;DHT22;29429;51.074;13.764;2022-12-29T13:04:52;14.10;99.90
43949;DHT22;29429;51.074;13.764;2022-12-29T13:08:06;14.10;99.90
43949;DHT22;29429;51.074;13.764;2022-12-29T13:10:46;14.20;99.90
43949;DHT22;29429;51.074;13.764;2022-12-29T13:20:44;14.30;99.90
43949;DHT22;29429;51.074;13.764;2022-12-29T13:23:29;14.30;99.90
43949;DHT22;29429;51.074;13.764;2022-12-29T13:41:06;14.10;99.90
43949;DHT22;29429;51.074;13.764;2022-12-29T13:43:48;13.90;99.90
43949;DHT22;29429;51.074;13.764;2022-12-29T13:46:46;13.80;99.90
43949;DHT22;29429;51.074;13.764;2022-12-29T13:49:20;13.70;99.90
43949;DHT22;29429;51.074;13.764;2022-12-29T13:51:57;13.70;99.90
43949;DHT22;29429;51.074;13.764;2022-12-29T13:54:47;13.60;99.90
43949;DHT22;29429;51.074;13.764;2022-12-29T14:00:57;13.50;99.90
43949;DHT22;29429;51.074;13.764;2022-12-29T14:03:46;13.30;99.90
43949;DHT22;29429;51.074;13.764;2022-12-29T14:06:19;13.30;99.90
43949;DHT22;29429;51.074;13.764;2022-12-29T14:11:36;13.30;99.90
43949;DHT22;29429;51.074;13.764;2022-12-29T14:16:51;13.30;99.90
43949;DHT22;29429;51.074;13.764;2022-12-29T14:19:26;13.30;99.90
43949;DHT22;29429;51.074;13.764;2022-12-29T14:21:59;13.30;99.90
43949;DHT22;29429;51.074;13.764;2022-12-29T14:34:57;13.20;99.90
43949;DHT22;29429;51.074;13.764;2022-12-29T14:37:47;13.20;99.90
43949;DHT22;29429;51.074;13.764;2022-12-29T14:40:33;13.20;99.90
43949;DHT22;29429;51.074;13.764;2022-12-29T14:43:01;13.20;99.90
43949;DHT22;29429;51.074;13.764;2022-12-29T14:45:41;13.10;99.90
43949;DHT22;29429;51.074;13.764;2022-12-29T14:48:43;13.10;99.90
43949;DHT22;29429;51.074;13.764;2022-12-29T14:51:32;13.10;99.90
43949;DHT22;29429;51.074;13.764;2022-12-29T14:57:03;13.00;99.90
43949;DHT22;29429;51.074;13.764;2022-12-29T14:59:34;13.00;99.90
43949;DHT22;29429;51.074;13.764;2022-12-29T15:02:05;13.00;99.90
43949;DHT22;29429;51.074;13.764;2022-12-29T15:04:46;13.00;99.90
43949;DHT22;29429;51.074;13.764;2022-12-29T15:07:15;12.90;99.90
43949;DHT22;29429;51.074;13.764;2022-12-29T15:09:53;12.90;99.90
43949;DHT22;29429;51.074;13.764;2022-12-29T15:12:42;12.80;99.90
43949;DHT22;29429;51.074;13.764;2022-12-29T15:15:22;12.70;99.90
43949;DHT22;29429;51.074;13.764;2022-12-29T15:17:52;12.60;99.90
43949;DHT22;29429;51.074;13.764;2022-12-29T15:20:24;12.60;99.90
43949;DHT22;29429;51.074;13.764;2022-12-29T15:22:57;12.60;99.90
43949;DHT22;29429;51.074;13.764;2022-12-29T15:25:29;12.50;99.90
43949;DHT22;29429;51.074;13.764;2022-12-29T15:28:01;12.50;99.90
43949;DHT22;29429;51.074;13.764;2022-12-29T15:30:32;12.50;99.90
43949;DHT22;29429;51.074;13.764;2022-12-29T15:32:59;12.50;99.90
43949;DHT22;29429;51.074;13.764;2022-12-29T15:35:35;12.40;99.90
43949;DHT22;29429;51.074;13.764;2022-12-29T15:38:14;12.40;99.90
43949;DHT22;29429;51.074;13.764;2022-12-29T15:40:44;12.30;99.90
43949;DHT22;29429;51.074;13.764;2022-12-29T15:43:24;12.20;99.90
43949;DHT22;29429;51.074;13.764;2022-12-29T15:46:00;12.20;99.90
43949;DHT22;29429;51.074;13.764;2022-12-29T15:48:29;12.20;99.90
43949;DHT22;29429;51.074;13.764;2022-12-29T15:50:57;12.30;99.90
43949;DHT22;29429;51.074;13.764;2022-12-29T15:53:29;12.30;99.90
43949;DHT22;29429;51.074;13.764;2022-12-29T15:56:10;12.30;99.90
43949;DHT22;29429;51.074;13.764;2022-12-29T15:58:43;12.40;99.90
43949;DHT22;29429;51.074;13.764;2022-12-29T16:01:32;12.40;99.90
43949;DHT22;29429;51.074;13.764;2022-12-29T16:04:07;12.50;99.90
43949;DHT22;29429;51.074;13.764;2022-12-29T16:06:39;12.50;99.90
43949;DHT22;29429;51.074;13.764;2022-12-29T16:09:16;12.50;99.90
43949;DHT22;29429;51.074;13.764;2022-12-29T16:11:53;12.50;99.90
43949;DHT22;29429;51.074;13.764;2022-12-29T16:14:41;12.30;99.90
43949;DHT22;29429;51.074;13.764;2022-12-29T16:17:13;12.30;99.90
43949;DHT22;29429;51.074;13.764;2022-12-29T16:19:51;12.20;99.90
43949;DHT22;29429;51.074;13.764;2022-12-29T16:22:41;12.10;99.90
43949;DHT22;29429;51.074;13.764;2022-12-29T16:25:32;12.00;99.90
43949;DHT22;29429;51.074;13.764;2022-12-29T16:28:11;11.80;99.90
43949;DHT22;29429;51.074;13.764;2022-12-29T16:30:43;11.70;99.90
43949;DHT22;29429;51.074;13.764;2022-12-29T16:33:40;11.70;99.90
43949;DHT22;29429;51.074;13.764;2022-12-29T16:36:33;11.70;99.90
43949;DHT22;29429;51.074;13.764;2022-12-29T16:39:18;11.70;99.90
43949;DHT22;29429;51.074;13.764;2022-12-29T16:41:49;11.70;99.90
43949;DHT22;29429;51.074;13.764;2022-12-29T16:44:17;11.60;99.90
43949;DHT22;29429;51.074;13.764;2022-12-29T16:46:57;11.60;99.90
43949;DHT22;29429;51.074;13.764;2022-12-29T16:49:40;11.70;99.90
43949;DHT22;29429;51.074;13.764;2022-12-29T16:52:25;11.60;99.90
43949;DHT22;29429;51.074;13.764;2022-12-29T16:54:59;11.60;99.90
43949;DHT22;29429;51.074;13.764;2022-12-29T16:57:33;11.60;99.90
43949;DHT22;29429;51.074;13.764;2022-12-29T17:00:07;11.60;99.90
43949;DHT22;29429;51.074;13.764;2022-12-29T17:02:44;11.60;99.90
43949;DHT22;29429;51.074;13.764;2022-12-29T17:05:16;11.70;99.90
43949;DHT22;29429;51.074;13.764;2022-12-29T17:07:45;11.70;99.90
43949;DHT22;29429;51.074;13.764;2022-12-29T17:10:13;11.60;99.90
43949;DHT22;29429;51.074;13.764;2022-12-29T17:12:43;11.60;99.90
43949;DHT22;29429;51.074;13.764;2022-12-29T17:15:26;11.50;99.90
43949;DHT22;29429;51.074;13.764;2022-12-29T17:18:00;11.40;99.90
43949;DHT22;29429;51.074;13.764;2022-12-29T17:20:29;11.30;99.90
43949;DHT22;29429;51.074;13.764;2022-12-29T17:22:58;11.10;99.90
43949;DHT22;29429;51.074;13.764;2022-12-29T17:25:30;11.00;99.90
43949;DHT22;29429;51.074;13.764;2022-12-29T17:28:04;10.90;99.90
43949;DHT22;29429;51.074;13.764;2022-12-29T17:30:59;10.90;99.90
43949;DHT22;29429;51.074;13.764;2022-12-29T17:33:34;10.60;99.90
43949;DHT22;29429;51.074;13.764;2022-12-29T17:36:04;10.60;99.90
43949;DHT22;29429;51.074;13.764;2022-12-29T17:38:34;10.60;99.90
43949;DHT22;29429;51.074;13.764;2022-12-29T17:41:02;10.60;99.90
43949;DHT22;29429;51.074;13.764;2022-12-29T17:43:29;10.60;99.90
43949;DHT22;29429;51.074;13.764;2022-12-29T17:46:05;10.50;99.90
43949;DHT22;29429;51.074;13.764;2022-12-29T17:48:34;10.50;99.90
43949;DHT22;29429;51.074;13.764;2022-12-29T17:51:01;10.50;99.90
43949;DHT22;29429;51.074;13.764;2022-12-29T17:53:29;10.60;99.90
43949;DHT22;29429;51.074;13.764;2022-12-29T17:55:56;10.40;99.90
43949;DHT22;29429;51.074;13.764;2022-12-29T17:58:28;10.40;99.90
43949;DHT22;29429;51.074;13.764;2022-12-29T18:00:59;10.30;99.90
43949;DHT22;29429;51.074;13.764;2022-12-29T18:03:32;10.20;99.90
43949;DHT22;29429;51.074;13.764;2022-12-29T18:06:02;10.20;99.90
43949;DHT22;29429;51.074;13.764;2022-12-29T18:08:33;10.10;99.90
43949;DHT22;29429;51.074;13.764;2022-12-29T18:11:01;10.00;99.90
43949;DHT22;29429;51.074;13.764;2022-12-29T18:13:31;10.00;99.90
43949;DHT22;29429;51.074;13.764;2022-12-29T18:16:12;10.00;99.90
43949;DHT22;29429;51.074;13.764;2022-12-29T18:18:40;10.00;99.90
43949;DHT22;29429;51.074;13.764;2022-12-29T18:21:17;10.00;99.90
43949;DHT22;29429;51.074;13.764;2022-12-29T18:23:46;10.00;99.90